AIC2812 VOBL-VABB
Flight info
| Callsign | AIC2812 |
|---|---|
| Flight time | N/A |
| Altitude | 36000 |
| Route | VAGPU7B VAGPU Q8 AGELA MOLGO2A |
| Aircraft | A320/M-SDE3FGHIRWY/LB1 |
Departure
| Time | 2026-04-27 08:07 |
|---|---|
| Airport | Kempegowda International Airport Bengaluru (VOBL) |
Arrival
| Time | N/A |
|---|---|
| Airport | Chhatrapati Shivaji Maharaj International Airport (VABB) |
| Time | Latitude | Longitude | Altitude | Speed | Heading |
|---|---|---|---|---|---|
| 2026-04-27 07:46 | 13.20161 | 77.71163 | 3012 ft | 0 kts | 180° |
| 2026-04-27 07:55 | 13.20185 | 77.71162 | 3013 ft | 4 kts | 176° |
| 2026-04-27 07:56 | 13.20211 | 77.71159 | 3016 ft | 4 kts | 165° |
| 2026-04-27 07:56 | 13.20235 | 77.71148 | 3013 ft | 4 kts | 128° |
| 2026-04-27 07:56 | 13.20241 | 77.71136 | 3019 ft | 0 kts | 90° |
| 2026-04-27 07:59 | 13.20240 | 77.71160 | 3013 ft | 1 kts | 90° |
| 2026-04-27 07:59 | 13.20240 | 77.71161 | 3013 ft | 0 kts | 90° |
| 2026-04-27 08:00 | 13.20240 | 77.71163 | 3011 ft | 0 kts | 90° |
| 2026-04-27 08:00 | 13.20240 | 77.71185 | 3011 ft | 3 kts | 90° |
| 2026-04-27 08:00 | 13.20240 | 77.71205 | 3011 ft | 5 kts | 90° |
| 2026-04-27 08:00 | 13.20241 | 77.71255 | 3011 ft | 6 kts | 81° |
| 2026-04-27 08:01 | 13.20272 | 77.71276 | 3011 ft | 7 kts | 2° |
| 2026-04-27 08:01 | 13.20314 | 77.71276 | 3011 ft | 6 kts | 1° |
| 2026-04-27 08:01 | 13.20409 | 77.71277 | 3011 ft | 22 kts | 0° |
| 2026-04-27 08:01 | 13.20511 | 77.71271 | 3013 ft | 9 kts | 331° |
| 2026-04-27 08:02 | 13.20527 | 77.71219 | 3011 ft | 7 kts | 268° |
| 2026-04-27 08:02 | 13.20526 | 77.71163 | 3011 ft | 9 kts | 270° |
| 2026-04-27 08:02 | 13.20526 | 77.71103 | 3011 ft | 8 kts | 271° |
| 2026-04-27 08:02 | 13.20527 | 77.71045 | 3011 ft | 13 kts | 271° |
| 2026-04-27 08:03 | 13.20529 | 77.70894 | 3011 ft | 28 kts | 269° |
| 2026-04-27 08:03 | 13.20531 | 77.70654 | 3011 ft | 39 kts | 271° |
| 2026-04-27 08:03 | 13.20531 | 77.70371 | 3011 ft | 39 kts | 269° |
| 2026-04-27 08:03 | 13.20534 | 77.70101 | 3012 ft | 37 kts | 270° |
| 2026-04-27 08:04 | 13.20536 | 77.69927 | 3011 ft | 36 kts | 271° |
| 2026-04-27 08:04 | 13.20538 | 77.69673 | 3011 ft | 35 kts | 270° |
| 2026-04-27 08:04 | 13.20540 | 77.69424 | 3011 ft | 34 kts | 270° |
| 2026-04-27 08:04 | 13.20542 | 77.69182 | 3011 ft | 34 kts | 270° |
| 2026-04-27 08:05 | 13.20544 | 77.68952 | 3015 ft | 31 kts | 270° |
| 2026-04-27 08:05 | 13.20546 | 77.68744 | 3011 ft | 20 kts | 271° |
| 2026-04-27 08:05 | 13.20553 | 77.68630 | 3011 ft | 13 kts | 289° |
| 2026-04-27 08:05 | 13.20622 | 77.68614 | 3012 ft | 10 kts | 2° |
| 2026-04-27 08:06 | 13.20697 | 77.68626 | 3011 ft | 7 kts | 33° |
| 2026-04-27 08:06 | 13.20716 | 77.68652 | 3012 ft | 6 kts | 66° |
| 2026-04-27 08:06 | 13.20719 | 77.68690 | 3011 ft | 4 kts | 89° |
| 2026-04-27 08:06 | 13.20719 | 77.68798 | 3011 ft | 43 kts | 90° |
| 2026-04-27 08:07 | 13.20711 | 77.69621 | 3011 ft | 126 kts | 90° |
| 2026-04-27 08:07 | 13.20704 | 77.70304 | 3011 ft | 157 kts | 90° |
| 2026-04-27 08:07 | 13.20685 | 77.71570 | 3116 ft | 189 kts | 95° |
| 2026-04-27 08:07 | 13.20613 | 77.72887 | 3797 ft | 184 kts | 91° |
| 2026-04-27 08:08 | 13.20808 | 77.74179 | 4135 ft | 195 kts | 63° |
| 2026-04-27 08:08 | 13.21731 | 77.75196 | 4266 ft | 202 kts | 26° |
| 2026-04-27 08:08 | 13.23135 | 77.75437 | 4358 ft | 215 kts | 348° |
| 2026-04-27 08:08 | 13.24578 | 77.74863 | 4489 ft | 230 kts | 338° |
| 2026-04-27 08:09 | 13.26082 | 77.74181 | 4611 ft | 242 kts | 338° |
| 2026-04-27 08:09 | 13.27254 | 77.73649 | 4706 ft | 252 kts | 337° |